createdAt,value
2022-12-03T00:00:44.723Z,94487.03
2022-12-03T00:03:11.403Z,94483.22
2022-12-03T00:05:41.739Z,94483.31
2022-12-03T00:08:11.312Z,94473.53
2022-12-03T00:10:37.953Z,94478.63
2022-12-03T00:13:04.449Z,94485.47
2022-12-03T00:15:33.940Z,94484.13
2022-12-03T00:18:00.467Z,94482.50
2022-12-03T00:20:26.809Z,94483.56
2022-12-03T00:22:53.354Z,94475.19
2022-12-03T00:25:19.745Z,94478.63
2022-12-03T00:27:46.126Z,94480.13
2022-12-03T00:30:12.519Z,94471.63
2022-12-03T00:32:38.922Z,94466.31
2022-12-03T00:35:05.280Z,94472.09
2022-12-03T00:37:31.769Z,94474.41
2022-12-03T00:39:58.123Z,94473.59
2022-12-03T00:42:24.502Z,94472.41
2022-12-03T00:44:51.337Z,94473.19
2022-12-03T00:47:17.950Z,94472.41
2022-12-03T00:49:44.333Z,94475.25
2022-12-03T00:52:10.712Z,94479.88
2022-12-03T00:54:37.067Z,94483.69
2022-12-03T00:57:03.882Z,94491.75
2022-12-03T00:59:30.321Z,94481.47
2022-12-03T01:01:59.007Z,94484.72
2022-12-03T01:04:25.812Z,94490.06
2022-12-03T01:06:52.178Z,94488.16
2022-12-03T01:09:18.572Z,94487.66
2022-12-03T01:11:44.917Z,94483.00
2022-12-03T01:14:11.361Z,94494.53
2022-12-03T01:16:37.800Z,94495.91
2022-12-03T01:19:04.279Z,94492.69
2022-12-03T01:21:30.649Z,94499.00
2022-12-03T01:23:59.188Z,94492.59
2022-12-03T01:26:25.682Z,94499.88
2022-12-03T01:28:52.111Z,94495.13
2022-12-03T01:31:18.862Z,94504.88
2022-12-03T01:33:45.227Z,94497.59
2022-12-03T01:36:11.911Z,94492.72
2022-12-03T01:38:38.371Z,94493.41
2022-12-03T01:41:10.068Z,94489.81
2022-12-03T01:43:37.944Z,94494.19
2022-12-03T01:46:04.386Z,94482.00
2022-12-03T01:48:30.809Z,94486.28
2022-12-03T01:50:57.231Z,94481.06
2022-12-03T01:53:24.643Z,94483.94
2022-12-03T01:55:51.078Z,94492.88
2022-12-03T01:58:17.465Z,94499.47
2022-12-03T02:00:43.904Z,94495.88
2022-12-03T02:03:10.449Z,94491.22
2022-12-03T02:05:37.154Z,94495.31
2022-12-03T02:08:03.617Z,94494.88
2022-12-03T02:10:30.190Z,94480.19
2022-12-03T02:12:56.616Z,94477.84
2022-12-03T02:15:23.034Z,94477.16
2022-12-03T02:17:49.455Z,94476.78
2022-12-03T02:20:16.197Z,94470.31
2022-12-03T02:22:42.683Z,94474.19
2022-12-03T02:25:09.020Z,94471.19
2022-12-03T02:27:35.470Z,94473.81
2022-12-03T02:30:01.816Z,94474.91
2022-12-03T02:32:28.138Z,94454.50
2022-12-03T02:34:56.715Z,94459.44
2022-12-03T02:37:23.096Z,94470.28
2022-12-03T02:39:49.661Z,94469.06
2022-12-03T02:42:16.058Z,94478.66
2022-12-03T02:44:42.609Z,94489.63
2022-12-03T02:47:09.008Z,94493.59
2022-12-03T02:49:35.877Z,94501.09
2022-12-03T02:52:02.525Z,94507.16
2022-12-03T02:54:29.060Z,94507.44
2022-12-03T02:56:55.447Z,94505.22
2022-12-03T02:59:22.199Z,94485.31
2022-12-03T03:01:48.668Z,94481.28
2022-12-03T03:04:15.080Z,94475.09
2022-12-03T03:06:41.675Z,94471.13
2022-12-03T03:09:08.024Z,94469.91
2022-12-03T03:11:34.495Z,94478.00
2022-12-03T03:14:00.837Z,94478.94
2022-12-03T03:16:27.359Z,94465.16
2022-12-03T03:18:53.915Z,94476.28
2022-12-03T03:21:20.392Z,94473.00
2022-12-03T03:23:46.791Z,94473.44
2022-12-03T03:26:13.174Z,94470.28
2022-12-03T03:28:40.564Z,94472.34
2022-12-03T03:31:06.945Z,94478.66
2022-12-03T03:33:33.289Z,94479.34
2022-12-03T03:35:59.647Z,94484.44
2022-12-03T03:38:26.040Z,94485.25
2022-12-03T03:40:52.621Z,94492.13
2022-12-03T03:43:18.966Z,94481.56
2022-12-03T03:45:45.462Z,94477.84
2022-12-03T03:48:12.286Z,94483.75
2022-12-03T03:50:38.848Z,94487.44
2022-12-03T03:53:05.280Z,94495.41
2022-12-03T03:55:33.976Z,94495.41
2022-12-03T03:58:00.357Z,94497.63
2022-12-03T04:00:27.039Z,94502.16
2022-12-03T04:02:53.449Z,94495.94
2022-12-03T04:05:19.938Z,94490.47
2022-12-03T04:07:46.586Z,94491.03
2022-12-03T04:10:12.954Z,94489.91
2022-12-03T04:12:39.342Z,94479.22
2022-12-03T04:15:05.674Z,94480.06
2022-12-03T04:17:32.106Z,94488.44
2022-12-03T04:19:58.586Z,94485.00
2022-12-03T04:22:24.982Z,94481.94
2022-12-03T04:24:51.691Z,94487.16
2022-12-03T04:27:18.424Z,94478.53
2022-12-03T04:29:44.831Z,94488.13
2022-12-03T04:32:12.225Z,94481.66
2022-12-03T04:34:38.627Z,94484.78
2022-12-03T04:37:04.959Z,94487.22
2022-12-03T04:39:31.396Z,94492.59
2022-12-03T04:41:57.744Z,94496.56
2022-12-03T04:44:24.085Z,94505.41
2022-12-03T04:46:50.560Z,94504.34
2022-12-03T04:49:16.964Z,94505.38
2022-12-03T04:51:43.303Z,94503.63
2022-12-03T04:54:09.718Z,94504.59
2022-12-03T04:56:36.056Z,94503.22
2022-12-03T04:59:02.443Z,94506.00
2022-12-03T05:01:28.898Z,94505.75
2022-12-03T05:03:55.330Z,94509.28
2022-12-03T05:06:21.882Z,94506.00
2022-12-03T05:08:48.226Z,94503.38
2022-12-03T05:11:14.774Z,94503.19
2022-12-03T05:13:43.017Z,94495.66
2022-12-03T05:16:09.813Z,94497.13
2022-12-03T05:18:36.347Z,94496.75
2022-12-03T05:21:02.739Z,94501.94
2022-12-03T05:23:29.128Z,94493.22
2022-12-03T05:25:55.476Z,94499.91
2022-12-03T05:28:21.819Z,94490.19
2022-12-03T05:30:48.256Z,94496.91
2022-12-03T05:33:14.718Z,94502.31
2022-12-03T05:35:42.130Z,94502.59
2022-12-03T05:38:08.513Z,94491.06
2022-12-03T05:40:34.871Z,94497.97
2022-12-03T05:43:01.245Z,94498.28
2022-12-03T05:45:27.659Z,94494.16
2022-12-03T05:47:54.060Z,94489.28
2022-12-03T05:50:20.440Z,94489.00
2022-12-03T05:52:47.022Z,94478.31
2022-12-03T05:55:13.404Z,94480.53
2022-12-03T05:57:40.947Z,94479.84
2022-12-03T06:00:09.769Z,94484.75
2022-12-03T06:02:36.553Z,94481.97
2022-12-03T06:05:03.030Z,94482.41
2022-12-03T06:07:29.471Z,94482.16
2022-12-03T06:09:55.825Z,94479.09
2022-12-03T06:12:22.532Z,94484.88
2022-12-03T06:14:48.860Z,94475.03
2022-12-03T06:17:15.631Z,94477.34
2022-12-03T06:19:41.974Z,94475.31
2022-12-03T06:22:08.345Z,94475.88
2022-12-03T06:24:34.723Z,94476.72
2022-12-03T06:27:01.199Z,94468.91
2022-12-03T06:29:27.639Z,94473.97
2022-12-03T06:31:54.012Z,94476.44
2022-12-03T06:34:20.464Z,94462.47
2022-12-03T06:36:46.809Z,94460.53
2022-12-03T06:39:13.317Z,94455.88
2022-12-03T06:41:39.666Z,94461.09
2022-12-03T06:44:06.165Z,94464.63
2022-12-03T06:46:32.714Z,94469.03
2022-12-03T06:48:59.094Z,94471.66
2022-12-03T06:51:25.585Z,94470.69
2022-12-03T06:53:51.956Z,94470.53
2022-12-03T06:56:22.086Z,94469.84
2022-12-03T06:58:49.290Z,94476.88
2022-12-03T07:01:18.128Z,94467.94
2022-12-03T07:03:44.622Z,94466.31
2022-12-03T07:06:10.967Z,94473.72
2022-12-03T07:08:37.304Z,94470.00
2022-12-03T07:11:03.751Z,94475.66
2022-12-03T07:13:30.136Z,94470.44
2022-12-03T07:15:56.628Z,94472.91
2022-12-03T07:18:23.053Z,94469.06
2022-12-03T07:20:49.434Z,94470.28
2022-12-03T07:23:15.813Z,94472.91
2022-12-03T07:25:42.202Z,94467.69
2022-12-03T07:28:08.593Z,94476.06
2022-12-03T07:30:34.951Z,94479.09
2022-12-03T07:33:02.325Z,94478.00
2022-12-03T07:35:31.059Z,94483.47
2022-12-03T07:37:57.519Z,94486.91
2022-12-03T07:40:23.859Z,94481.41
2022-12-03T07:42:50.196Z,94481.16
2022-12-03T07:45:16.575Z,94481.69
2022-12-03T07:47:43.068Z,94491.03
2022-12-03T07:50:09.437Z,94477.72
2022-12-03T07:52:35.833Z,94478.56
2022-12-03T07:55:02.643Z,94484.75
2022-12-03T07:57:29.018Z,94476.09
2022-12-03T07:59:55.369Z,94475.53
2022-12-03T08:02:22.100Z,94470.72
2022-12-03T08:04:48.584Z,94469.63
2022-12-03T08:07:14.946Z,94463.03
2022-12-03T08:09:41.289Z,94470.75
2022-12-03T08:12:07.759Z,94473.91
2022-12-03T08:14:34.240Z,94459.19
2022-12-03T08:17:00.609Z,94464.28
2022-12-03T08:19:27.057Z,94466.75
2022-12-03T08:22:01.050Z,94473.50
2022-12-03T08:24:27.880Z,94469.66
2022-12-03T08:26:55.259Z,94473.47
2022-12-03T08:29:21.697Z,94466.75
2022-12-03T08:31:48.187Z,94471.56
2022-12-03T08:34:14.613Z,94465.94
2022-12-03T08:36:41.392Z,94467.16
2022-12-03T08:39:07.777Z,94461.69
2022-12-03T08:41:34.216Z,94465.50
2022-12-03T08:44:00.674Z,94463.19
2022-12-03T08:46:27.228Z,94464.00
2022-12-03T08:48:55.212Z,94464.25
2022-12-03T08:51:29.350Z,94458.63
2022-12-03T08:54:01.240Z,94459.63
2022-12-03T08:56:28.379Z,94458.38
2022-12-03T08:58:54.818Z,94453.16
2022-12-03T09:01:21.274Z,94459.19
2022-12-03T09:03:47.803Z,94461.69
2022-12-03T09:06:14.226Z,94464.41
2022-12-03T09:08:40.983Z,94462.75
2022-12-03T09:11:07.326Z,94462.22
2022-12-03T09:13:35.775Z,94464.53
2022-12-03T09:16:02.210Z,94454.50
2022-12-03T09:18:28.966Z,94447.81
2022-12-03T09:20:55.333Z,94450.44
2022-12-03T09:23:21.718Z,94447.97
2022-12-03T09:25:48.216Z,94453.84
2022-12-03T09:28:14.618Z,94457.00
2022-12-03T09:30:40.958Z,94451.53
2022-12-03T09:33:07.300Z,94458.94
2022-12-03T09:35:33.636Z,94451.94
2022-12-03T09:38:00.128Z,94451.13
2022-12-03T09:40:26.747Z,94459.06
2022-12-03T09:42:53.281Z,94443.81
2022-12-03T09:45:19.763Z,94444.22
2022-12-03T09:47:46.188Z,94446.53
2022-12-03T09:50:15.654Z,94444.34
2022-12-03T09:52:43.020Z,94434.88
2022-12-03T09:55:09.394Z,94431.69
2022-12-03T09:57:36.153Z,94426.78
2022-12-03T10:00:02.658Z,94434.63
2022-12-03T10:02:29.311Z,94425.69
2022-12-03T10:04:55.979Z,94428.47
2022-12-03T10:07:24.921Z,94428.75
2022-12-03T10:09:51.696Z,94428.88
2022-12-03T10:12:18.220Z,94429.28
2022-12-03T10:14:44.812Z,94425.88
2022-12-03T10:17:12.266Z,94416.69
2022-12-03T10:19:39.212Z,94429.31
2022-12-03T10:22:05.554Z,94417.78
2022-12-03T10:24:33.014Z,94415.59
2022-12-03T10:26:59.488Z,94406.00
2022-12-03T10:29:31.628Z,94410.66
2022-12-03T10:31:59.940Z,94413.94
2022-12-03T10:34:28.021Z,94399.09
2022-12-03T10:36:54.578Z,94407.56
2022-12-03T10:39:20.925Z,94414.41
2022-12-03T10:41:47.331Z,94404.41
2022-12-03T10:44:13.777Z,94399.81
2022-12-03T10:46:40.714Z,94403.66
2022-12-03T10:49:07.453Z,94394.44
2022-12-03T10:51:33.796Z,94396.50
2022-12-03T10:54:00.346Z,94396.59
2022-12-03T10:56:26.857Z,94396.59
2022-12-03T10:58:54.848Z,94409.06
2022-12-03T11:01:21.563Z,94394.03
2022-12-03T11:03:48.090Z,94390.97
2022-12-03T11:06:14.655Z,94378.00
2022-12-03T11:08:41.201Z,94377.81
2022-12-03T11:11:07.539Z,94376.00
2022-12-03T11:13:34.389Z,94373.47
2022-12-03T11:16:03.213Z,94383.59
2022-12-03T11:18:32.605Z,94367.63
2022-12-03T11:20:59.029Z,94361.88
2022-12-03T11:23:25.628Z,94366.88
2022-12-03T11:25:52.092Z,94367.69
2022-12-03T11:28:18.496Z,94370.91
2022-12-03T11:30:44.919Z,94356.88
2022-12-03T11:33:11.327Z,94357.66
2022-12-03T11:35:37.755Z,94357.06
2022-12-03T11:38:04.226Z,94360.56
2022-12-03T11:40:36.132Z,94343.34
2022-12-03T11:43:05.644Z,94344.53
2022-12-03T11:45:31.998Z,94342.00
2022-12-03T11:47:58.424Z,94350.19
2022-12-03T11:50:24.786Z,94339.06
2022-12-03T11:52:51.331Z,94334.72
2022-12-03T11:55:17.788Z,94333.22
2022-12-03T11:57:44.156Z,94339.50
2022-12-03T12:00:10.897Z,94334.50
2022-12-03T12:02:38.418Z,94337.72
2022-12-03T12:05:05.058Z,94343.59
2022-12-03T12:07:31.875Z,94325.53
2022-12-03T12:09:58.570Z,94321.75
2022-12-03T12:12:24.990Z,94327.88
2022-12-03T12:14:51.355Z,94325.25
2022-12-03T12:17:17.818Z,94327.38
2022-12-03T12:19:45.074Z,94327.03
2022-12-03T12:22:12.113Z,94316.47
2022-12-03T12:24:38.541Z,94311.66
2022-12-03T12:27:04.945Z,94313.25
2022-12-03T12:29:31.367Z,94308.94
2022-12-03T12:31:57.776Z,94315.28
2022-12-03T12:34:24.248Z,94314.78
2022-12-03T12:36:51.085Z,94301.59
2022-12-03T12:39:17.587Z,94308.72
2022-12-03T12:41:45.034Z,94311.16
2022-12-03T12:44:13.595Z,94306.38
2022-12-03T12:46:47.812Z,94312.00
2022-12-03T12:49:15.462Z,94298.94
2022-12-03T12:51:41.875Z,94297.69
2022-12-03T12:54:08.540Z,94303.75
2022-12-03T12:56:35.027Z,94308.63
2022-12-03T12:59:01.660Z,94304.00
2022-12-03T13:01:28.364Z,94310.94
2022-12-03T13:03:54.852Z,94299.63
2022-12-03T13:06:21.256Z,94297.53
2022-12-03T13:08:47.767Z,94292.06
2022-12-03T13:11:14.675Z,94289.63
2022-12-03T13:13:44.071Z,94286.09
2022-12-03T13:16:11.963Z,94290.97
2022-12-03T13:18:38.361Z,94285.16
2022-12-03T13:21:04.703Z,94286.34
2022-12-03T13:23:31.309Z,94289.09
2022-12-03T13:26:02.268Z,94287.41
2022-12-03T13:28:32.965Z,94289.69
2022-12-03T13:30:59.559Z,94286.81
2022-12-03T13:33:25.960Z,94278.00
2022-12-03T13:35:52.397Z,94279.66
2022-12-03T13:38:18.856Z,94290.44
2022-12-03T13:40:45.233Z,94284.19
2022-12-03T13:43:11.601Z,94288.16
2022-12-03T13:45:38.043Z,94285.06
2022-12-03T13:48:04.468Z,94284.28
2022-12-03T13:50:31.841Z,94277.91
2022-12-03T13:52:58.231Z,94281.78
2022-12-03T13:55:24.635Z,94269.69
2022-12-03T13:57:51.146Z,94271.59
2022-12-03T14:00:17.498Z,94272.38
2022-12-03T14:02:43.888Z,94272.75
2022-12-03T14:05:10.407Z,94260.31
2022-12-03T14:07:36.830Z,94269.06
2022-12-03T14:10:03.292Z,94262.81
2022-12-03T14:12:29.649Z,94263.06
2022-12-03T14:14:56.038Z,94257.69
2022-12-03T14:17:22.394Z,94262.75
2022-12-03T14:19:48.988Z,94257.97
2022-12-03T14:22:15.340Z,94255.91
2022-12-03T14:24:41.683Z,94247.00
2022-12-03T14:27:08.068Z,94251.28
2022-12-03T14:29:34.416Z,94247.16
2022-12-03T14:32:00.975Z,94254.63
2022-12-03T14:34:27.354Z,94252.81
2022-12-03T14:36:53.707Z,94246.81
2022-12-03T14:39:20.543Z,94259.94
2022-12-03T14:41:48.918Z,94262.16
2022-12-03T14:44:15.307Z,94258.66
2022-12-03T14:46:41.712Z,94259.19
2022-12-03T14:49:08.345Z,94267.22
2022-12-03T14:51:34.751Z,94264.34
2022-12-03T14:54:01.093Z,94265.84
2022-12-03T14:56:27.437Z,94275.53
2022-12-03T14:58:53.820Z,94268.97
2022-12-03T15:01:20.199Z,94267.84
2022-12-03T15:03:48.694Z,94259.94
2022-12-03T15:06:15.046Z,94267.31
2022-12-03T15:08:41.383Z,94263.59
2022-12-03T15:11:07.942Z,94259.41
2022-12-03T15:13:34.332Z,94267.63
2022-12-03T15:16:00.723Z,94257.34
2022-12-03T15:18:29.681Z,94261.88
2022-12-03T15:20:56.205Z,94262.69
2022-12-03T15:23:22.733Z,94264.63
2022-12-03T15:25:49.277Z,94260.31
2022-12-03T15:28:16.659Z,94258.22
2022-12-03T15:30:43.042Z,94257.00
2022-12-03T15:33:09.681Z,94251.47
2022-12-03T15:35:37.570Z,94258.88
2022-12-03T15:38:03.937Z,94256.50
2022-12-03T15:40:30.424Z,94251.47
2022-12-03T15:42:56.774Z,94248.78
2022-12-03T15:45:23.169Z,94243.56
2022-12-03T15:47:49.518Z,94245.75
2022-12-03T15:50:15.883Z,94242.97
2022-12-03T15:52:42.266Z,94237.91
2022-12-03T15:55:08.955Z,94238.06
2022-12-03T15:57:35.297Z,94233.94
2022-12-03T16:00:01.645Z,94237.00
2022-12-03T16:02:28.077Z,94237.91
2022-12-03T16:04:54.523Z,94231.25
2022-12-03T16:07:21.181Z,94234.03
2022-12-03T16:09:47.984Z,94239.53
2022-12-03T16:12:14.433Z,94235.38
2022-12-03T16:14:41.915Z,94240.59
2022-12-03T16:17:08.508Z,94238.41
2022-12-03T16:19:34.957Z,94236.03
2022-12-03T16:22:01.751Z,94239.00
2022-12-03T16:24:28.578Z,94234.38
2022-12-03T16:26:55.012Z,94240.50
2022-12-03T16:29:21.396Z,94241.53
2022-12-03T16:31:47.761Z,94237.22
2022-12-03T16:34:14.417Z,94236.63
2022-12-03T16:36:40.915Z,94237.00
2022-12-03T16:39:07.287Z,94233.03
2022-12-03T16:41:33.764Z,94237.41
2022-12-03T16:44:00.374Z,94238.94
2022-12-03T16:46:26.963Z,94230.81
2022-12-03T16:48:53.386Z,94238.50
2022-12-03T16:51:19.893Z,94228.53
2022-12-03T16:53:47.421Z,94240.53
2022-12-03T16:56:13.771Z,94236.53
2022-12-03T16:58:40.252Z,94231.16
2022-12-03T17:01:06.869Z,94238.47
2022-12-03T17:03:34.232Z,94233.97
2022-12-03T17:06:00.694Z,94235.84
2022-12-03T17:08:27.364Z,94237.22
2022-12-03T17:10:53.775Z,94237.56
2022-12-03T17:13:21.463Z,94230.84
2022-12-03T17:15:48.051Z,94230.72
2022-12-03T17:18:15.056Z,94238.78
2022-12-03T17:20:41.610Z,94233.13
2022-12-03T17:23:10.946Z,94225.00
2022-12-03T17:25:38.097Z,94231.25
2022-12-03T17:28:04.513Z,94236.19
2022-12-03T17:30:30.845Z,94228.22
2022-12-03T17:32:57.217Z,94226.28
2022-12-03T17:35:23.638Z,94233.44
2022-12-03T17:37:50.048Z,94232.38
2022-12-03T17:40:17.217Z,94228.66
2022-12-03T17:42:43.855Z,94224.38
2022-12-03T17:45:10.233Z,94226.94
2022-12-03T17:47:36.615Z,94229.09
2022-12-03T17:50:03.171Z,94218.97
2022-12-03T17:52:29.611Z,94233.03
2022-12-03T17:55:10.480Z,94229.63
2022-12-03T17:57:39.448Z,94224.69
2022-12-03T18:00:05.926Z,94228.81
2022-12-03T18:02:32.415Z,94231.50
2022-12-03T18:04:59.120Z,94226.56
2022-12-03T18:07:25.627Z,94229.16
2022-12-03T18:09:52.296Z,94229.47
2022-12-03T18:12:21.394Z,94221.88
2022-12-03T18:14:47.795Z,94220.91
2022-12-03T18:17:14.505Z,94222.56
2022-12-03T18:19:40.961Z,94214.78
2022-12-03T18:22:07.365Z,94219.31
2022-12-03T18:24:33.702Z,94214.91
2022-12-03T18:27:00.169Z,94200.75
2022-12-03T18:29:26.737Z,94210.38
2022-12-03T18:31:53.182Z,94216.25
2022-12-03T18:34:19.697Z,94209.03
2022-12-03T18:36:46.105Z,94204.75
2022-12-03T18:39:12.488Z,94216.63
2022-12-03T18:41:38.856Z,94215.78
2022-12-03T18:44:05.396Z,94228.72
2022-12-03T18:46:52.421Z,94223.66
2022-12-03T18:49:18.372Z,94228.16
2022-12-03T18:51:45.811Z,94231.91
2022-12-03T18:54:12.588Z,94225.84
2022-12-03T18:56:38.977Z,94226.75
2022-12-03T18:59:05.683Z,94238.72
2022-12-03T19:01:32.120Z,94229.88
2022-12-03T19:03:58.698Z,94223.81
2022-12-03T19:06:25.604Z,94234.09
2022-12-03T19:08:52.210Z,94220.78
2022-12-03T19:11:19.197Z,94222.72
2022-12-03T19:13:45.849Z,94228.16
2022-12-03T19:16:12.231Z,94229.38
2022-12-03T19:18:38.918Z,94221.75
2022-12-03T19:21:05.319Z,94218.53
2022-12-03T19:23:31.675Z,94215.34
2022-12-03T19:25:59.338Z,94210.28
2022-12-03T19:28:25.822Z,94218.78
2022-12-03T19:30:54.483Z,94217.88
2022-12-03T19:33:26.743Z,94202.38
2022-12-03T19:35:54.731Z,94198.66
2022-12-03T19:38:21.407Z,94196.22
2022-12-03T19:40:47.860Z,94208.00
2022-12-03T19:43:15.242Z,94215.75
2022-12-03T19:45:41.622Z,94205.00
2022-12-03T19:48:08.434Z,94205.34
2022-12-03T19:50:35.995Z,94209.31
2022-12-03T20:03:45.249Z,94210.13
2022-12-03T20:06:11.835Z,94211.88
2022-12-03T20:08:38.291Z,94220.50
2022-12-03T20:11:04.652Z,94218.72
2022-12-03T20:13:36.339Z,94208.88
2022-12-03T20:16:06.064Z,94210.38
2022-12-03T20:18:32.680Z,94224.44
2022-12-03T20:20:59.067Z,94227.44
2022-12-03T20:23:25.458Z,94213.16
2022-12-03T20:25:51.876Z,94209.75
2022-12-03T20:28:18.349Z,94211.78
2022-12-03T20:30:44.704Z,94214.75
2022-12-03T20:33:13.702Z,94222.00
2022-12-03T20:35:40.066Z,94226.19
2022-12-03T20:38:06.561Z,94220.19
2022-12-03T20:40:32.937Z,94221.81
2022-12-03T20:43:00.668Z,94222.06
2022-12-03T20:45:27.108Z,94214.50
2022-12-03T20:47:53.608Z,94209.59
2022-12-03T20:50:19.999Z,94215.56
2022-12-03T20:53:03.569Z,94207.16
2022-12-03T20:55:32.923Z,94197.00
2022-12-03T20:57:59.296Z,94197.16
2022-12-03T21:00:25.660Z,94204.56
2022-12-03T21:02:52.478Z,94202.03
2022-12-03T21:05:18.867Z,94196.41
2022-12-03T21:07:45.593Z,94195.97
2022-12-03T21:10:12.053Z,94204.25
2022-12-03T21:12:38.532Z,94197.53
2022-12-03T21:15:07.347Z,94200.97
2022-12-03T21:17:33.867Z,94204.25
2022-12-03T21:20:01.238Z,94219.63
2022-12-03T21:22:27.674Z,94211.13
2022-12-03T21:24:54.033Z,94210.22
2022-12-03T21:27:21.962Z,94202.47
2022-12-03T21:29:50.990Z,94209.94
2022-12-03T21:32:17.633Z,94219.22
2022-12-03T21:34:44.003Z,94212.91
2022-12-03T21:37:10.388Z,94211.63
2022-12-03T21:39:36.843Z,94219.81
2022-12-03T21:42:19.222Z,94230.22
2022-12-03T21:44:49.777Z,94225.00
2022-12-03T21:47:16.192Z,94220.47
2022-12-03T21:49:42.573Z,94214.66
2022-12-03T21:52:09.067Z,94228.06
2022-12-03T21:54:35.445Z,94221.88
2022-12-03T21:57:01.827Z,94224.09
2022-12-03T21:59:28.255Z,94227.69
2022-12-03T22:01:54.643Z,94242.59
2022-12-03T22:04:21.051Z,94234.91
2022-12-03T22:06:47.503Z,94237.97
2022-12-03T22:09:14.906Z,94237.50
2022-12-03T22:11:41.389Z,94244.53
2022-12-03T22:14:07.882Z,94237.75
2022-12-03T22:16:34.431Z,94236.84
2022-12-03T22:19:00.854Z,94246.16
2022-12-03T22:21:27.229Z,94246.06
2022-12-03T22:23:53.686Z,94240.50
2022-12-03T22:26:20.047Z,94241.69
2022-12-03T22:28:46.426Z,94250.56
2022-12-03T22:31:12.890Z,94243.41
2022-12-03T22:33:39.381Z,94255.19
2022-12-03T22:36:05.807Z,94254.47
2022-12-03T22:38:32.183Z,94253.22
2022-12-03T22:40:58.568Z,94247.41
2022-12-03T22:43:25.052Z,94242.53
2022-12-03T22:45:51.473Z,94244.19
2022-12-03T22:48:17.864Z,94246.66
2022-12-03T22:50:44.206Z,94247.47
2022-12-03T22:53:10.657Z,94232.47
2022-12-03T22:55:37.416Z,94227.78
2022-12-03T22:58:03.877Z,94228.59
2022-12-03T23:00:30.270Z,94219.50
2022-12-03T23:02:56.777Z,94212.00
2022-12-03T23:05:23.402Z,94214.56
2022-12-03T23:07:49.802Z,94211.66
2022-12-03T23:10:16.244Z,94204.44
2022-12-03T23:12:42.731Z,94209.09
2022-12-03T23:15:09.133Z,94204.72
2022-12-03T23:17:35.498Z,94204.78
2022-12-03T23:20:01.854Z,94216.88
2022-12-03T23:22:28.230Z,94217.34
2022-12-03T23:24:54.615Z,94205.59
2022-12-03T23:27:21.007Z,94211.63
2022-12-03T23:29:47.801Z,94212.91
2022-12-03T23:32:14.155Z,94216.25
2022-12-03T23:34:40.557Z,94210.47
2022-12-03T23:37:07.138Z,94206.28
2022-12-03T23:39:33.916Z,94209.72
2022-12-03T23:42:00.436Z,94197.25
2022-12-03T23:44:26.822Z,94200.38
2022-12-03T23:46:53.266Z,94202.56
2022-12-03T23:49:19.719Z,94183.00
2022-12-03T23:51:46.126Z,94178.31
2022-12-03T23:54:12.512Z,94178.97
2022-12-03T23:56:38.861Z,94186.88
2022-12-03T23:59:05.305Z,94205.38
